Time;durP1;ratioP1;P1;durP2;ratioP2;P2;SDS_P1;SDS_P2;PMS_P1;PMS_P2;Temp;Humidity;BMP_temperature;BMP_pressure;BME280_temperature;BME280_humidity;BME280_pressure;Samples;Min_cycle;Max_cycle;Signal;HPM_P1;HPM_P2
2021/09/11 00:01:36;;;;;;;;;;;23.30;48.30;;;;;;8364707;28;19916;-48
2021/09/11 00:05:36;;;;;;;;;;;23.30;48.30;;;;;;8364332;28;19916;-49
2021/09/11 00:09:37;;;;;;;;;;;23.30;48.30;;;;;;8366112;28;20285;-48
2021/09/11 00:13:38;;;;;;;;;;;23.30;48.30;;;;;;8364289;28;19921;-47
2021/09/11 00:17:39;;;;;;;;;;;23.30;48.30;;;;;;8364513;28;19964;-48
2021/09/11 00:21:39;;;;;;;;;;;23.30;48.30;;;;;;8364547;28;19974;-48
2021/09/11 00:25:40;;;;;;;;;;;23.30;48.30;;;;;;8364651;28;19913;-47
2021/09/11 00:29:40;;;;;;;;;;;23.30;48.40;;;;;;8364456;28;19916;-48
2021/09/11 00:33:41;;;;;;;;;;;23.30;48.40;;;;;;8364345;28;20004;-47
2021/09/11 00:37:42;;;;;;;;;;;23.30;48.40;;;;;;8363528;28;19970;-48
2021/09/11 00:41:42;;;;;;;;;;;23.30;48.40;;;;;;8363810;28;19913;-51
2021/09/11 00:45:42;;;;;;;;;;;23.30;48.40;;;;;;8364509;28;19940;-49
2021/09/11 00:49:43;;;;;;;;;;;23.30;48.30;;;;;;8363409;28;19923;-48
2021/09/11 00:53:43;;;;;;;;;;;23.30;48.40;;;;;;8363762;28;19917;-46
2021/09/11 00:57:45;;;;;;;;;;;23.30;48.40;;;;;;8363511;28;19928;-48
2021/09/11 01:01:45;;;;;;;;;;;23.30;48.40;;;;;;8363830;28;19920;-49
2021/09/11 01:05:46;;;;;;;;;;;23.30;48.40;;;;;;8363435;28;19924;-48
2021/09/11 01:09:46;;;;;;;;;;;23.30;48.40;;;;;;8363427;28;19927;-50
2021/09/11 01:13:47;;;;;;;;;;;23.20;48.30;;;;;;8362870;28;19917;-48
2021/09/11 01:17:48;;;;;;;;;;;23.30;48.40;;;;;;8369207;28;19952;-47
2021/09/11 01:21:48;;;;;;;;;;;23.20;48.40;;;;;;8374168;28;19995;-47
2021/09/11 01:25:48;;;;;;;;;;;23.20;48.40;;;;;;8373652;28;19921;-47
2021/09/11 01:29:53;;;;;;;;;;;23.20;48.40;;;;;;8374018;28;19924;-47
2021/09/11 01:33:53;;;;;;;;;;;23.20;48.40;;;;;;8373480;28;20015;-47
2021/09/11 01:37:54;;;;;;;;;;;23.20;48.40;;;;;;8374816;28;20282;-49
2021/09/11 01:41:54;;;;;;;;;;;23.20;48.40;;;;;;8373963;28;20026;-48
2021/09/11 01:45:55;;;;;;;;;;;23.20;48.40;;;;;;8373326;28;19923;-48
2021/09/11 01:49:55;;;;;;;;;;;23.20;48.40;;;;;;8373782;28;19924;-49
2021/09/11 01:53:56;;;;;;;;;;;23.20;48.40;;;;;;8374531;28;19935;-47
2021/09/11 01:57:56;;;;;;;;;;;23.20;48.40;;;;;;8373315;28;20381;-47
2021/09/11 02:01:57;;;;;;;;;;;23.20;48.40;;;;;;8373517;28;19920;-47
2021/09/11 02:05:57;;;;;;;;;;;23.20;48.50;;;;;;8373659;28;19921;-48
2021/09/11 02:09:58;;;;;;;;;;;23.20;48.50;;;;;;8373331;28;19920;-50
2021/09/11 02:13:58;;;;;;;;;;;23.20;48.50;;;;;;8374061;28;20009;-48
2021/09/11 02:17:59;;;;;;;;;;;23.20;48.50;;;;;;8373397;28;19999;-47
2021/09/11 02:22:03;;;;;;;;;;;23.20;48.50;;;;;;8372868;28;19913;-49
2021/09/11 02:26:03;;;;;;;;;;;23.20;48.50;;;;;;8373138;28;19913;-47
2021/09/11 02:30:04;;;;;;;;;;;23.20;48.50;;;;;;8369586;28;19921;-50
2021/09/11 02:34:05;;;;;;;;;;;23.10;48.50;;;;;;8367490;28;20370;-47
2021/09/11 02:38:05;;;;;;;;;;;23.20;48.50;;;;;;8368187;28;19959;-48
2021/09/11 02:42:06;;;;;;;;;;;23.10;48.50;;;;;;8367803;28;19988;-48
2021/09/11 02:46:06;;;;;;;;;;;23.10;48.50;;;;;;8367849;28;19921;-49
2021/09/11 02:50:07;;;;;;;;;;;23.10;48.60;;;;;;8367911;28;19921;-48
2021/09/11 02:54:07;;;;;;;;;;;23.10;48.50;;;;;;8367209;28;19921;-48
2021/09/11 02:58:08;;;;;;;;;;;23.10;48.50;;;;;;8366825;28;20269;-50
2021/09/11 03:02:08;;;;;;;;;;;23.10;48.50;;;;;;8367283;28;20000;-48
2021/09/11 03:06:09;;;;;;;;;;;23.10;49.10;;;;;;8366351;28;19913;-48
2021/09/11 03:10:09;;;;;;;;;;;23.20;48.60;;;;;;8366640;28;19974;-50
2021/09/11 03:14:10;;;;;;;;;;;23.10;48.60;;;;;;8366828;28;19924;-48
2021/09/11 03:18:10;;;;;;;;;;;23.10;48.60;;;;;;8367142;28;19917;-49
2021/09/11 03:22:11;;;;;;;;;;;23.10;48.60;;;;;;8367054;28;19959;-48
2021/09/11 03:26:11;;;;;;;;;;;23.10;48.60;;;;;;8366131;28;20004;-49
2021/09/11 03:30:12;;;;;;;;;;;23.10;48.60;;;;;;8366278;28;19921;-48
2021/09/11 03:34:12;;;;;;;;;;;23.10;48.60;;;;;;8365598;28;22596;-48
2021/09/11 03:38:13;;;;;;;;;;;23.10;48.60;;;;;;8394387;28;19917;-48
2021/09/11 03:42:13;;;;;;;;;;;23.10;48.60;;;;;;8364834;28;20305;-48
2021/09/11 03:46:14;;;;;;;;;;;23.10;48.60;;;;;;8365262;28;19995;-50
2021/09/11 03:50:14;;;;;;;;;;;23.10;48.60;;;;;;8365982;28;19917;-47
2021/09/11 03:54:14;;;;;;;;;;;23.10;48.60;;;;;;8365449;28;19978;-48
2021/09/11 03:58:15;;;;;;;;;;;23.10;48.60;;;;;;8365506;28;19999;-48
2021/09/11 04:02:15;;;;;;;;;;;23.10;48.60;;;;;;8365059;28;19924;-48
2021/09/11 04:06:16;;;;;;;;;;;23.00;48.60;;;;;;8364793;28;19923;-47
2021/09/11 04:10:16;;;;;;;;;;;23.00;48.60;;;;;;8364840;28;19928;-48
2021/09/11 04:14:17;;;;;;;;;;;23.10;49.20;;;;;;8365440;28;19952;-48
2021/09/11 04:18:17;;;;;;;;;;;23.00;48.60;;;;;;8364818;28;19928;-48
2021/09/11 04:22:18;;;;;;;;;;;23.00;48.60;;;;;;8364116;28;19924;-47
2021/09/11 04:26:18;;;;;;;;;;;23.00;48.60;;;;;;8364286;28;19919;-47
2021/09/11 04:30:19;;;;;;;;;;;23.00;48.60;;;;;;8364593;28;20335;-48
2021/09/11 04:34:19;;;;;;;;;;;23.00;48.60;;;;;;8364385;28;19931;-47
2021/09/11 04:38:19;;;;;;;;;;;23.00;48.60;;;;;;8364020;28;19955;-46
2021/09/11 04:42:20;;;;;;;;;;;23.00;48.60;;;;;;8363957;28;19935;-48
2021/09/11 04:46:21;;;;;;;;;;;23.00;48.60;;;;;;8363450;28;20383;-48
2021/09/11 04:50:21;;;;;;;;;;;23.00;48.60;;;;;;8364906;28;20366;-48
2021/09/11 04:54:22;;;;;;;;;;;23.00;48.60;;;;;;8363380;28;19978;-48
2021/09/11 04:58:22;;;;;;;;;;;23.00;48.70;;;;;;8363264;28;19960;-48
2021/09/11 05:02:23;;;;;;;;;;;23.00;48.60;;;;;;8363452;28;19992;-50
2021/09/11 05:06:23;;;;;;;;;;;22.90;48.60;;;;;;8364100;28;20386;-48
2021/09/11 05:10:24;;;;;;;;;;;22.90;48.60;;;;;;8363334;28;19928;-49
2021/09/11 05:14:24;;;;;;;;;;;22.90;48.60;;;;;;8363426;28;19924;-49
2021/09/11 05:18:25;;;;;;;;;;;22.90;48.60;;;;;;8363027;28;19913;-49
2021/09/11 05:22:25;;;;;;;;;;;22.90;48.60;;;;;;8362952;28;19921;-48
2021/09/11 05:26:26;;;;;;;;;;;22.90;48.60;;;;;;8364195;28;20369;-47
2021/09/11 05:30:26;;;;;;;;;;;22.90;48.60;;;;;;8363002;28;20378;-48
2021/09/11 05:34:27;;;;;;;;;;;22.90;48.60;;;;;;8362843;28;19921;-47
2021/09/11 05:38:27;;;;;;;;;;;22.90;48.60;;;;;;8362903;28;19975;-48
2021/09/11 05:42:27;;;;;;;;;;;22.90;48.60;;;;;;8363592;28;19921;-50
2021/09/11 05:46:28;;;;;;;;;;;22.90;48.60;;;;;;8362400;28;19921;-48
2021/09/11 05:50:28;;;;;;;;;;;22.90;48.60;;;;;;8362612;28;19924;-51
2021/09/11 05:54:29;;;;;;;;;;;22.90;48.60;;;;;;8362619;28;20262;-52
2021/09/11 05:58:29;;;;;;;;;;;22.90;48.60;;;;;;8363093;28;19940;-50
2021/09/11 06:02:30;;;;;;;;;;;22.90;48.60;;;;;;8362610;28;20381;-48
2021/09/11 06:06:30;;;;;;;;;;;22.90;48.60;;;;;;8367954;28;19927;-47
2021/09/11 06:10:31;;;;;;;;;;;22.90;48.60;;;;;;8368113;28;20416;-48
2021/09/11 06:14:31;;;;;;;;;;;22.90;48.60;;;;;;8368419;28;20396;-47
2021/09/11 06:18:32;;;;;;;;;;;22.90;48.60;;;;;;8369267;28;19986;-47
2021/09/11 06:22:32;;;;;;;;;;;22.90;48.60;;;;;;8375547;28;20457;-48
2021/09/11 06:26:33;;;;;;;;;;;22.90;48.60;;;;;;8383886;28;20258;-47
2021/09/11 06:30:33;;;;;;;;;;;22.90;48.60;;;;;;8401350;28;19924;-48
2021/09/11 06:34:34;;;;;;;;;;;22.90;48.60;;;;;;8401264;28;19931;-50
2021/09/11 06:38:34;;;;;;;;;;;22.90;48.60;;;;;;8400975;28;19920;-47
2021/09/11 06:42:34;;;;;;;;;;;22.90;48.60;;;;;;8400727;28;19912;-48
2021/09/11 06:46:35;;;;;;;;;;;22.90;48.60;;;;;;8400276;28;19917;-47
2021/09/11 06:50:36;;;;;;;;;;;22.90;48.60;;;;;;8401622;28;19965;-49
2021/09/11 06:54:36;;;;;;;;;;;22.90;48.60;;;;;;8400258;28;19920;-48
2021/09/11 06:58:37;;;;;;;;;;;22.90;48.60;;;;;;8399857;28;20335;-49
2021/09/11 07:02:37;;;;;;;;;;;22.90;48.60;;;;;;8400236;28;19954;-47
2021/09/11 07:06:38;;;;;;;;;;;22.90;48.60;;;;;;8399892;28;20440;-48
2021/09/11 07:10:39;;;;;;;;;;;22.90;48.60;;;;;;8400111;28;20397;-47
2021/09/11 07:14:39;;;;;;;;;;;22.90;48.60;;;;;;8399643;28;20305;-48
2021/09/11 07:18:40;;;;;;;;;;;22.90;48.60;;;;;;8399681;28;19991;-48
2021/09/11 07:22:40;;;;;;;;;;;22.90;48.60;;;;;;8398978;28;19977;-48
2021/09/11 07:26:41;;;;;;;;;;;22.90;48.60;;;;;;8400050;28;19913;-48
2021/09/11 07:30:41;;;;;;;;;;;22.90;48.60;;;;;;8399205;28;20031;-47
2021/09/11 07:34:42;;;;;;;;;;;22.90;48.60;;;;;;8398550;28;19924;-49
2021/09/11 07:38:42;;;;;;;;;;;22.90;48.50;;;;;;8398846;28;19912;-48
2021/09/11 07:42:43;;;;;;;;;;;22.90;48.50;;;;;;8399582;28;20339;-47
2021/09/11 07:46:43;;;;;;;;;;;22.90;48.50;;;;;;8398438;28;19916;-49
2021/09/11 07:50:43;;;;;;;;;;;23.00;48.50;;;;;;8398903;28;20294;-47
2021/09/11 07:54:44;;;;;;;;;;;23.00;48.50;;;;;;8398358;28;20400;-51
2021/09/11 07:58:44;;;;;;;;;;;23.00;48.50;;;;;;8397711;28;19950;-49
2021/09/11 08:02:45;;;;;;;;;;;23.00;48.50;;;;;;8398464;28;19913;-48
2021/09/11 08:06:46;;;;;;;;;;;23.00;48.50;;;;;;8397941;28;20297;-49
2021/09/11 08:10:46;;;;;;;;;;;23.00;48.50;;;;;;8397268;28;19928;-52
2021/09/11 08:14:47;;;;;;;;;;;23.00;48.40;;;;;;8397844;28;20405;-50
2021/09/11 08:18:48;;;;;;;;;;;23.00;48.40;;;;;;8398382;28;19923;-50
2021/09/11 08:22:49;;;;;;;;;;;23.00;48.40;;;;;;8397158;28;20368;-50
2021/09/11 08:26:49;;;;;;;;;;;23.00;48.40;;;;;;8397089;28;19923;-50
2021/09/11 08:30:50;;;;;;;;;;;23.10;48.50;;;;;;8386640;28;19916;-51
2021/09/11 08:34:52;;;;;;;;;;;23.10;48.50;;;;;;8363643;28;19925;-49
2021/09/11 08:38:52;;;;;;;;;;;23.10;48.50;;;;;;8365000;28;20285;-48
2021/09/11 08:42:53;;;;;;;;;;;23.10;48.50;;;;;;8363806;28;19947;-48
2021/09/11 08:46:54;;;;;;;;;;;23.10;48.50;;;;;;8362176;28;20033;-47
2021/09/11 08:50:55;;;;;;;;;;;23.10;48.50;;;;;;8363539;28;19923;-49
2021/09/11 08:54:55;;;;;;;;;;;23.10;48.50;;;;;;8363774;28;19921;-50
2021/09/11 08:59:08;;;;;;;;;;;23.10;48.50;;;;;;8363525;28;19916;-47
2021/09/11 09:03:30;;;;;;;;;;;23.10;48.50;;;;;;8363173;28;19921;-48
2021/09/11 09:07:41;;;;;;;;;;;23.10;48.40;;;;;;8362878;28;19917;-48
2021/09/11 09:11:42;;;;;;;;;;;23.10;48.50;;;;;;8363007;28;19921;-50
2021/09/11 09:15:43;;;;;;;;;;;23.10;48.50;;;;;;8364018;28;20413;-48
2021/09/11 09:19:43;;;;;;;;;;;23.20;48.50;;;;;;8363147;28;19917;-48
2021/09/11 09:23:45;;;;;;;;;;;23.20;48.50;;;;;;8363025;28;19920;-47
2021/09/11 09:27:52;;;;;;;;;;;23.20;48.40;;;;;;8363152;28;20000;-51
2021/09/11 09:31:54;;;;;;;;;;;23.20;48.50;;;;;;8363334;28;19937;-48
2021/09/11 09:35:58;;;;;;;;;;;23.20;48.40;;;;;;8396099;28;19954;-48
2021/09/11 09:39:59;;;;;;;;;;;23.20;48.40;;;;;;8400451;28;19974;-51
2021/09/11 09:43:59;;;;;;;;;;;23.20;48.40;;;;;;8402504;28;20003;-47
2021/09/11 09:48:00;;;;;;;;;;;23.20;48.40;;;;;;8402307;28;19971;-51
2021/09/11 09:52:00;;;;;;;;;;;23.30;48.40;;;;;;8402085;28;19966;-49
2021/09/11 09:56:02;;;;;;;;;;;23.30;48.40;;;;;;8401367;28;19925;-49
2021/09/11 10:00:03;;;;;;;;;;;23.30;48.40;;;;;;8401959;28;19920;-48
2021/09/11 10:04:22;;;;;;;;;;;23.30;48.30;;;;;;8401354;28;20442;-48
2021/09/11 10:08:24;;;;;;;;;;;23.30;48.30;;;;;;8401935;28;19919;-50
2021/09/11 10:12:50;;;;;;;;;;;23.30;48.30;;;;;;8402304;28;19917;-48
2021/09/11 10:16:58;;;;;;;;;;;23.40;48.30;;;;;;8396816;28;19932;-50
2021/09/11 10:21:18;;;;;;;;;;;23.40;48.30;;;;;;8399888;28;19920;-51
2021/09/11 10:25:37;;;;;;;;;;;23.40;48.20;;;;;;8400737;28;20394;-49
2021/09/11 10:29:43;;;;;;;;;;;23.40;48.20;;;;;;8401048;28;19967;-53
2021/09/11 10:33:46;;;;;;;;;;;23.50;48.20;;;;;;8400661;28;19916;-49
2021/09/11 10:37:48;;;;;;;;;;;23.50;48.10;;;;;;8400120;28;20381;-51
2021/09/11 10:42:21;;;;;;;;;;;23.50;48.10;;;;;;8400842;28;19955;-48
2021/09/11 10:46:21;;;;;;;;;;;23.60;48.10;;;;;;8355480;28;19924;-49
2021/09/11 10:50:36;;;;;;;;;;;23.60;48.10;;;;;;8399618;28;19964;-49
2021/09/11 10:54:38;;;;;;;;;;;23.50;48.10;;;;;;8401025;28;19927;-49
2021/09/11 10:58:38;;;;;;;;;;;23.60;48.10;;;;;;8399878;28;19974;-52
2021/09/11 11:02:39;;;;;;;;;;;23.60;48.10;;;;;;8400052;28;20343;-52
2021/09/11 11:06:41;;;;;;;;;;;23.60;48.10;;;;;;8400068;28;19913;-51
2021/09/11 11:10:42;;;;;;;;;;;23.60;48.00;;;;;;8400800;28;19920;-50
2021/09/11 11:14:45;;;;;;;;;;;23.70;48.10;;;;;;8399916;28;19924;-49
2021/09/11 11:18:46;;;;;;;;;;;23.60;48.00;;;;;;8399527;28;19916;-49
2021/09/11 11:22:47;;;;;;;;;;;23.70;48.00;;;;;;8399216;28;20395;-51
2021/09/11 11:26:48;;;;;;;;;;;23.70;48.00;;;;;;8399336;28;19921;-52
2021/09/11 11:30:51;;;;;;;;;;;23.70;48.00;;;;;;8400064;28;19916;-49
2021/09/11 11:34:54;;;;;;;;;;;23.70;48.00;;;;;;8398875;28;19925;-51
2021/09/11 11:38:55;;;;;;;;;;;23.70;48.50;;;;;;8399076;28;19945;-50
2021/09/11 11:43:00;;;;;;;;;;;23.70;48.00;;;;;;8398434;28;19970;-50
2021/09/11 11:47:07;;;;;;;;;;;23.70;48.00;;;;;;8399378;28;19997;-49
2021/09/11 11:51:16;;;;;;;;;;;23.70;47.90;;;;;;8399120;28;19920;-51
2021/09/11 11:55:18;;;;;;;;;;;23.80;48.00;;;;;;8398071;28;19948;-49
2021/09/11 11:59:25;;;;;;;;;;;23.80;48.00;;;;;;8398493;28;20373;-53
2021/09/11 12:03:42;;;;;;;;;;;23.80;48.00;;;;;;8397283;28;19924;-53
2021/09/11 12:08:02;;;;;;;;;;;23.80;48.10;;;;;;8398312;28;19913;-49
2021/09/11 12:12:04;;;;;;;;;;;23.80;48.00;;;;;;8398639;28;19974;-51
2021/09/11 12:16:04;;;;;;;;;;;23.80;48.00;;;;;;8397270;28;19920;-48
2021/09/11 12:20:15;;;;;;;;;;;23.80;48.00;;;;;;8397957;28;20260;-47
2021/09/11 12:24:20;;;;;;;;;;;23.80;48.10;;;;;;8397684;28;20284;-46
2021/09/11 12:28:37;;;;;;;;;;;23.80;48.10;;;;;;8398113;28;20262;-47
2021/09/11 12:32:47;;;;;;;;;;;23.80;48.10;;;;;;8397675;28;19916;-47
2021/09/11 12:36:49;;;;;;;;;;;23.80;48.10;;;;;;8397078;28;19924;-46
2021/09/11 12:40:49;;;;;;;;;;;23.80;48.10;;;;;;8396284;28;19920;-48
2021/09/11 12:44:50;;;;;;;;;;;23.80;48.10;;;;;;8396992;28;20289;-49
2021/09/11 12:48:50;;;;;;;;;;;23.90;48.20;;;;;;8397755;28;19999;-49
2021/09/11 12:52:50;;;;;;;;;;;23.90;48.20;;;;;;8396302;28;19916;-50
2021/09/11 12:56:52;;;;;;;;;;;23.90;48.20;;;;;;8396509;28;19924;-48
2021/09/11 13:00:52;;;;;;;;;;;23.90;48.30;;;;;;8396645;28;19918;-49
2021/09/11 13:04:56;;;;;;;;;;;23.80;48.20;;;;;;8396908;28;20517;-49
2021/09/11 13:08:56;;;;;;;;;;;23.80;48.20;;;;;;8396718;28;19921;-49
2021/09/11 13:12:57;;;;;;;;;;;23.80;48.20;;;;;;8395400;28;20031;-50
2021/09/11 13:16:57;;;;;;;;;;;23.90;48.20;;;;;;8396165;28;20327;-48
2021/09/11 13:21:00;;;;;;;;;;;23.90;48.20;;;;;;8396369;28;19912;-52
2021/09/11 13:25:00;;;;;;;;;;;23.90;48.20;;;;;;8396427;28;20380;-51
2021/09/11 13:29:03;;;;;;;;;;;23.90;48.20;;;;;;8396358;28;20007;-48
2021/09/11 13:33:03;;;;;;;;;;;24.00;48.20;;;;;;8396001;28;19948;-50
2021/09/11 13:37:03;;;;;;;;;;;24.00;48.70;;;;;;8395542;28;20297;-49
2021/09/11 13:41:06;;;;;;;;;;;24.00;48.20;;;;;;8396666;28;19952;-48
2021/09/11 13:45:06;;;;;;;;;;;24.00;48.20;;;;;;8395897;28;19917;-49
2021/09/11 13:49:07;;;;;;;;;;;24.00;48.20;;;;;;8395488;28;19916;-47
2021/09/11 13:53:08;;;;;;;;;;;24.00;48.10;;;;;;8395945;28;19917;-47
2021/09/11 13:57:08;;;;;;;;;;;24.00;48.20;;;;;;8396928;28;19931;-48
2021/09/11 14:01:09;;;;;;;;;;;24.00;48.10;;;;;;8395637;28;19921;-47
2021/09/11 14:05:10;;;;;;;;;;;24.00;48.10;;;;;;8396019;28;19916;-47
2021/09/11 14:09:10;;;;;;;;;;;24.00;48.10;;;;;;8395628;28;19984;-48
2021/09/11 14:13:10;;;;;;;;;;;24.00;48.10;;;;;;8395010;28;20269;-49
2021/09/11 14:17:11;;;;;;;;;;;24.00;48.10;;;;;;8396223;28;19925;-48
2021/09/11 14:21:11;;;;;;;;;;;24.00;48.10;;;;;;8395385;28;19924;-48
2021/09/11 14:25:12;;;;;;;;;;;24.00;48.10;;;;;;8396716;28;19923;-47
2021/09/11 14:29:14;;;;;;;;;;;24.00;48.10;;;;;;8401431;28;19916;-51
2021/09/11 14:33:15;;;;;;;;;;;24.00;48.10;;;;;;8401604;28;19912;-47
2021/09/11 14:37:15;;;;;;;;;;;24.00;48.10;;;;;;8400620;28;19928;-48
2021/09/11 14:41:16;;;;;;;;;;;24.00;48.10;;;;;;8400757;28;19939;-48
2021/09/11 14:45:16;;;;;;;;;;;24.00;48.10;;;;;;8400808;28;19939;-50
2021/09/11 14:49:18;;;;;;;;;;;24.00;48.20;;;;;;8400513;28;20293;-48
2021/09/11 14:53:19;;;;;;;;;;;24.00;48.20;;;;;;8401163;28;19970;-48
2021/09/11 14:57:19;;;;;;;;;;;24.00;48.20;;;;;;8400314;28;19924;-47
2021/09/11 15:01:20;;;;;;;;;;;24.00;48.20;;;;;;8399892;28;20362;-48
2021/09/11 15:05:20;;;;;;;;;;;24.00;48.20;;;;;;8399966;28;19916;-46
2021/09/11 15:09:21;;;;;;;;;;;24.00;48.20;;;;;;8400910;28;19925;-47
2021/09/11 15:13:21;;;;;;;;;;;24.00;48.30;;;;;;8399287;28;19956;-47
2021/09/11 15:17:22;;;;;;;;;;;23.90;48.30;;;;;;8399636;28;19924;-50
2021/09/11 15:21:22;;;;;;;;;;;24.00;48.30;;;;;;8399641;28;19924;-49
2021/09/11 15:25:22;;;;;;;;;;;23.90;48.20;;;;;;8399848;28;19955;-51
2021/09/11 15:29:23;;;;;;;;;;;24.00;48.30;;;;;;8399289;28;19939;-50
2021/09/11 15:33:23;;;;;;;;;;;23.90;48.20;;;;;;8399655;28;20354;-47
2021/09/11 15:37:27;;;;;;;;;;;24.00;48.30;;;;;;8398480;28;20417;-47
2021/09/11 15:41:28;;;;;;;;;;;23.90;48.20;;;;;;8399343;28;19912;-48
2021/09/11 15:45:28;;;;;;;;;;;24.00;48.30;;;;;;8399527;28;19916;-47
2021/09/11 15:49:29;;;;;;;;;;;23.90;48.30;;;;;;8398525;28;19951;-47
2021/09/11 15:53:29;;;;;;;;;;;23.90;48.20;;;;;;8398821;28;19916;-49
2021/09/11 15:57:30;;;;;;;;;;;23.90;48.20;;;;;;8398504;28;19924;-47
2021/09/11 16:01:30;;;;;;;;;;;23.90;48.10;;;;;;8398654;28;19991;-48
2021/09/11 16:05:33;;;;;;;;;;;23.90;48.20;;;;;;8398248;28;19956;-48
2021/09/11 16:09:33;;;;;;;;;;;24.00;48.20;;;;;;8398453;28;20368;-48
2021/09/11 16:13:34;;;;;;;;;;;24.00;48.10;;;;;;8397768;28;19924;-48
2021/09/11 16:17:34;;;;;;;;;;;24.00;48.60;;;;;;8398602;28;19959;-48
2021/09/11 16:21:35;;;;;;;;;;;24.00;48.00;;;;;;8398041;28;19912;-47
2021/09/11 16:25:37;;;;;;;;;;;24.00;48.10;;;;;;8397293;28;19916;-46
2021/09/11 16:29:37;;;;;;;;;;;24.00;48.00;;;;;;8397708;28;19917;-47
2021/09/11 16:33:39;;;;;;;;;;;24.00;48.50;;;;;;8397624;28;19916;-47
2021/09/11 16:37:39;;;;;;;;;;;24.00;48.00;;;;;;8397588;28;20432;-47
2021/09/11 16:41:41;;;;;;;;;;;24.00;48.50;;;;;;8397180;28;19916;-49
2021/09/11 16:45:42;;;;;;;;;;;24.00;47.90;;;;;;8397276;28;19917;-47
2021/09/11 16:49:44;;;;;;;;;;;24.00;47.90;;;;;;8396081;28;20383;-48
2021/09/11 16:53:45;;;;;;;;;;;24.00;47.90;;;;;;8397590;28;19917;-47
2021/09/11 16:57:46;;;;;;;;;;;24.00;47.90;;;;;;8396679;28;19928;-49
2021/09/11 17:01:46;;;;;;;;;;;24.00;47.90;;;;;;8396480;28;19917;-46
2021/09/11 17:05:48;;;;;;;;;;;24.00;47.90;;;;;;8396856;28;20292;-47
2021/09/11 17:09:48;;;;;;;;;;;24.00;47.90;;;;;;8397041;28;20350;-47
2021/09/11 17:13:49;;;;;;;;;;;24.00;47.90;;;;;;8396799;28;19927;-46
2021/09/11 17:17:50;;;;;;;;;;;24.00;47.90;;;;;;8396620;28;19931;-47
2021/09/11 17:21:51;;;;;;;;;;;23.90;47.90;;;;;;8396342;28;19958;-47
2021/09/11 17:25:51;;;;;;;;;;;23.90;47.90;;;;;;8395729;28;20273;-47
2021/09/11 17:29:52;;;;;;;;;;;23.90;47.90;;;;;;8397148;28;19916;-50
2021/09/11 17:33:52;;;;;;;;;;;23.90;47.90;;;;;;8396151;28;20296;-47
2021/09/11 17:37:53;;;;;;;;;;;23.90;47.90;;;;;;8395727;28;20511;-48
2021/09/11 17:41:54;;;;;;;;;;;23.90;47.90;;;;;;8395976;28;19913;-47
2021/09/11 17:45:54;;;;;;;;;;;23.90;48.00;;;;;;8396153;28;19929;-48
2021/09/11 17:49:55;;;;;;;;;;;23.90;48.00;;;;;;8396401;28;19939;-48
2021/09/11 17:53:55;;;;;;;;;;;23.90;48.00;;;;;;8395936;28;19969;-47
2021/09/11 17:57:55;;;;;;;;;;;23.90;48.00;;;;;;8395301;28;19925;-47
2021/09/11 18:01:56;;;;;;;;;;;23.90;48.00;;;;;;8400602;28;19920;-47
2021/09/11 18:05:56;;;;;;;;;;;23.90;48.00;;;;;;8402755;28;19917;-48
2021/09/11 18:09:57;;;;;;;;;;;23.90;48.00;;;;;;8401404;28;20282;-47
2021/09/11 18:13:57;;;;;;;;;;;23.90;48.10;;;;;;8401804;28;19916;-47
2021/09/11 18:17:58;;;;;;;;;;;23.90;48.10;;;;;;8401555;28;19931;-47
2021/09/11 18:21:58;;;;;;;;;;;23.90;48.10;;;;;;8402037;28;20096;-49
2021/09/11 18:25:59;;;;;;;;;;;23.80;48.10;;;;;;8401377;28;19927;-48
2021/09/11 18:30:00;;;;;;;;;;;23.80;48.00;;;;;;8401580;28;19920;-46
2021/09/11 18:34:00;;;;;;;;;;;23.80;48.00;;;;;;8400929;28;20262;-47
2021/09/11 18:38:01;;;;;;;;;;;23.80;48.00;;;;;;8401809;28;19927;-47
2021/09/11 18:42:01;;;;;;;;;;;23.80;48.10;;;;;;8401030;28;20266;-46
2021/09/11 18:46:02;;;;;;;;;;;23.80;48.10;;;;;;8400397;28;20022;-46
2021/09/11 18:50:03;;;;;;;;;;;23.80;48.10;;;;;;8400563;28;19959;-47
2021/09/11 18:54:03;;;;;;;;;;;23.80;48.10;;;;;;8400535;28;20007;-47
2021/09/11 18:58:04;;;;;;;;;;;23.80;48.10;;;;;;8400513;28;20019;-47
2021/09/11 19:02:04;;;;;;;;;;;23.80;48.10;;;;;;8400114;28;20003;-47
2021/09/11 19:06:05;;;;;;;;;;;23.80;48.10;;;;;;8400277;28;19919;-48
2021/09/11 19:10:05;;;;;;;;;;;23.80;48.10;;;;;;8399388;28;19924;-47
2021/09/11 19:14:06;;;;;;;;;;;23.80;48.10;;;;;;8400648;28;19919;-47
2021/09/11 19:18:07;;;;;;;;;;;23.80;48.00;;;;;;8399803;28;19931;-47
2021/09/11 19:22:07;;;;;;;;;;;23.80;48.00;;;;;;8399248;28;20011;-46
2021/09/11 19:26:08;;;;;;;;;;;23.80;48.00;;;;;;8399774;28;19920;-47
2021/09/11 19:30:09;;;;;;;;;;;23.80;48.00;;;;;;8399655;28;19913;-47
2021/09/11 19:34:09;;;;;;;;;;;23.80;48.00;;;;;;8399910;28;19917;-48
2021/09/11 19:38:09;;;;;;;;;;;23.80;48.10;;;;;;8398964;28;19932;-47
2021/09/11 19:42:10;;;;;;;;;;;23.80;48.10;;;;;;8398754;28;20030;-48
2021/09/11 19:46:14;;;;;;;;;;;23.80;48.00;;;;;;8398438;28;19916;-49
2021/09/11 19:50:16;;;;;;;;;;;23.70;48.00;;;;;;8399547;28;19912;-49
2021/09/11 19:54:16;;;;;;;;;;;23.70;48.00;;;;;;8398490;28;19916;-49
2021/09/11 19:58:17;;;;;;;;;;;23.80;48.00;;;;;;8397979;28;20081;-52
2021/09/11 20:02:17;;;;;;;;;;;23.80;48.00;;;;;;8398858;28;19948;-48
2021/09/11 20:06:17;;;;;;;;;;;23.70;48.00;;;;;;8398974;28;19913;-49
2021/09/11 20:10:18;;;;;;;;;;;23.70;48.00;;;;;;8397111;28;20084;-48
2021/09/11 20:14:18;;;;;;;;;;;23.70;48.00;;;;;;8398381;28;19921;-49
2021/09/11 20:18:19;;;;;;;;;;;23.70;48.00;;;;;;8397617;28;19979;-48
2021/09/11 20:22:19;;;;;;;;;;;23.70;48.00;;;;;;8396860;28;20292;-48
2021/09/11 20:26:22;;;;;;;;;;;23.70;48.00;;;;;;8397687;28;21277;-47
2021/09/11 20:30:22;;;;;;;;;;;23.70;47.90;;;;;;8397361;28;20391;-49
2021/09/11 20:34:22;;;;;;;;;;;23.70;47.90;;;;;;8397139;28;19920;-48
2021/09/11 20:38:23;;;;;;;;;;;23.70;47.90;;;;;;8397170;28;20389;-47
2021/09/11 20:42:23;;;;;;;;;;;23.70;48.00;;;;;;8397695;28;19925;-47
2021/09/11 20:46:24;;;;;;;;;;;23.70;48.00;;;;;;8396655;28;20375;-47
2021/09/11 20:50:24;;;;;;;;;;;23.70;47.90;;;;;;8397104;28;19923;-47
2021/09/11 20:54:25;;;;;;;;;;;23.70;48.00;;;;;;8395600;28;20365;-47
2021/09/11 20:58:25;;;;;;;;;;;23.70;48.00;;;;;;8396949;28;19959;-49
2021/09/11 21:02:26;;;;;;;;;;;23.70;47.90;;;;;;8397075;28;19920;-47
2021/09/11 21:06:26;;;;;;;;;;;23.70;47.90;;;;;;8396684;28;19955;-47
2021/09/11 21:10:27;;;;;;;;;;;23.70;48.00;;;;;;8396665;28;19927;-49
2021/09/11 21:14:27;;;;;;;;;;;23.70;48.00;;;;;;8396617;28;20370;-48
2021/09/11 21:18:27;;;;;;;;;;;23.70;48.00;;;;;;8397130;28;19970;-47
2021/09/11 21:22:28;;;;;;;;;;;23.70;47.90;;;;;;8395842;28;19917;-50
2021/09/11 21:26:28;;;;;;;;;;;23.70;47.90;;;;;;8396650;28;19916;-46
2021/09/11 21:30:29;;;;;;;;;;;23.60;47.90;;;;;;8395040;28;19916;-48
2021/09/11 21:34:29;;;;;;;;;;;23.70;47.90;;;;;;8399289;28;19957;-48
2021/09/11 21:38:31;;;;;;;;;;;23.60;47.90;;;;;;8402930;28;19947;-48
2021/09/11 21:42:32;;;;;;;;;;;23.60;47.90;;;;;;8402087;28;19912;-47
2021/09/11 21:46:32;;;;;;;;;;;23.60;47.90;;;;;;8402230;28;19916;-47
2021/09/11 21:50:33;;;;;;;;;;;23.60;47.90;;;;;;8402947;28;19920;-47
2021/09/11 21:54:33;;;;;;;;;;;23.60;47.90;;;;;;8403208;28;19917;-47
2021/09/11 21:58:34;;;;;;;;;;;23.60;47.90;;;;;;8401743;28;19929;-48
2021/09/11 22:02:34;;;;;;;;;;;23.60;48.40;;;;;;8387078;28;19917;-50
2021/09/11 22:06:36;;;;;;;;;;;23.60;47.90;;;;;;8369037;28;19913;-48
2021/09/11 22:10:36;;;;;;;;;;;23.60;47.90;;;;;;8369585;28;19921;-47
2021/09/11 22:14:37;;;;;;;;;;;23.60;47.90;;;;;;8368522;28;20007;-50
2021/09/11 22:18:37;;;;;;;;;;;23.60;47.90;;;;;;8368573;28;19943;-48
2021/09/11 22:22:38;;;;;;;;;;;23.60;47.90;;;;;;8368097;28;20008;-50
2021/09/11 22:26:40;;;;;;;;;;;23.50;47.80;;;;;;8369401;28;19917;-50
2021/09/11 22:30:41;;;;;;;;;;;23.60;47.90;;;;;;8368396;28;19917;-47
2021/09/11 22:34:41;;;;;;;;;;;23.60;47.90;;;;;;8367743;28;19939;-47
2021/09/11 22:38:45;;;;;;;;;;;23.60;47.80;;;;;;8367997;28;20362;-48
2021/09/11 22:42:45;;;;;;;;;;;23.50;47.80;;;;;;8368223;28;19921;-47
2021/09/11 22:46:46;;;;;;;;;;;23.50;47.80;;;;;;8367114;28;20370;-47
2021/09/11 22:50:46;;;;;;;;;;;23.50;47.80;;;;;;8367985;28;20278;-47
2021/09/11 22:54:47;;;;;;;;;;;23.50;47.80;;;;;;8367481;28;19966;-48
2021/09/11 22:58:47;;;;;;;;;;;23.50;47.80;;;;;;8366821;28;19917;-49
2021/09/11 23:02:48;;;;;;;;;;;23.50;47.80;;;;;;8367872;28;19920;-47
2021/09/11 23:06:48;;;;;;;;;;;23.50;47.80;;;;;;8367133;28;20043;-47
2021/09/11 23:10:48;;;;;;;;;;;23.50;47.80;;;;;;8366553;28;19921;-47
2021/09/11 23:14:49;;;;;;;;;;;23.50;47.80;;;;;;8366821;28;19924;-48
2021/09/11 23:18:49;;;;;;;;;;;23.50;47.80;;;;;;8367804;28;20234;-48
2021/09/11 23:22:50;;;;;;;;;;;23.40;47.80;;;;;;8366138;28;19917;-47